createdAt,value
2018-10-07T00:01:36.592Z,8.00
2018-10-07T00:04:04.878Z,6.57
2018-10-07T00:06:33.160Z,7.73
2018-10-07T00:09:01.473Z,6.87
2018-10-07T00:11:29.773Z,7.10
2018-10-07T00:13:58.080Z,6.83
2018-10-07T00:16:26.376Z,6.70
2018-10-07T00:18:54.698Z,6.40
2018-10-07T00:21:22.967Z,6.77
2018-10-07T00:23:51.311Z,7.53
2018-10-07T00:26:19.628Z,7.10
2018-10-07T00:28:47.970Z,7.53
2018-10-07T00:31:16.258Z,6.93
2018-10-07T00:33:44.532Z,8.17
2018-10-07T00:36:12.826Z,7.17
2018-10-07T00:38:41.169Z,7.20
2018-10-07T00:41:09.443Z,7.43
2018-10-07T00:43:37.739Z,6.90
2018-10-07T00:46:06.011Z,6.60
2018-10-07T00:48:34.312Z,6.70
2018-10-07T00:51:02.576Z,6.23
2018-10-07T00:53:30.863Z,7.33
2018-10-07T00:55:59.528Z,6.60
2018-10-07T00:58:27.843Z,6.67
2018-10-07T01:00:56.111Z,7.07
2018-10-07T01:03:24.455Z,6.37
2018-10-07T01:05:52.737Z,6.83
2018-10-07T01:08:21.028Z,6.53
2018-10-07T01:10:49.304Z,5.70
2018-10-07T01:15:52.223Z,4.07
2018-10-07T01:18:20.516Z,4.30
2018-10-07T01:20:48.807Z,3.77
2018-10-07T01:23:17.082Z,4.13
2018-10-07T01:25:45.403Z,3.20
2018-10-07T01:28:13.685Z,2.90
2018-10-07T01:30:41.976Z,2.83
2018-10-07T01:33:10.256Z,2.70
2018-10-07T01:35:38.527Z,2.10
2018-10-07T01:38:06.920Z,2.20
2018-10-07T01:40:35.264Z,2.30
2018-10-07T01:43:03.560Z,3.00
2018-10-07T01:45:31.839Z,1.97
2018-10-07T01:48:00.173Z,2.10
2018-10-07T01:50:28.495Z,2.50
2018-10-07T01:52:56.799Z,2.73
2018-10-07T01:55:25.092Z,1.50
2018-10-07T01:57:53.411Z,2.53
2018-10-07T02:00:21.695Z,1.70
2018-10-07T02:02:49.985Z,1.93
2018-10-07T02:05:18.275Z,1.33
2018-10-07T02:07:46.563Z,1.70
2018-10-07T02:10:14.874Z,1.40
2018-10-07T02:12:43.147Z,1.90
2018-10-07T02:15:11.442Z,1.67
2018-10-07T02:17:39.764Z,1.17
2018-10-07T02:20:08.036Z,1.70
2018-10-07T02:22:36.308Z,1.43
2018-10-07T02:25:05.443Z,1.23
2018-10-07T02:27:33.747Z,0.80
2018-10-07T02:30:02.032Z,0.93
2018-10-07T02:32:30.347Z,0.63
2018-10-07T02:34:58.674Z,0.70
2018-10-07T02:37:27.017Z,1.13
2018-10-07T02:39:55.324Z,0.87
2018-10-07T02:42:23.630Z,1.10
2018-10-07T02:44:51.953Z,0.70
2018-10-07T02:47:20.268Z,0.80
2018-10-07T02:49:48.580Z,0.90
2018-10-07T02:52:22.212Z,0.70
2018-10-07T02:54:50.524Z,1.07
2018-10-07T02:57:18.828Z,0.80
2018-10-07T02:59:47.898Z,0.73
2018-10-07T03:02:16.257Z,0.90
2018-10-07T03:04:44.572Z,0.77
2018-10-07T03:07:12.899Z,0.70
2018-10-07T03:09:41.234Z,0.60
2018-10-07T03:12:09.554Z,1.40
2018-10-07T03:14:37.861Z,1.20
2018-10-07T03:17:06.272Z,1.00
2018-10-07T03:19:34.623Z,0.70
2018-10-07T03:22:02.914Z,1.03
2018-10-07T03:24:31.220Z,1.10
2018-10-07T03:26:59.532Z,1.10
2018-10-07T03:29:27.874Z,0.73
2018-10-07T03:31:56.099Z,0.80
2018-10-07T03:34:24.388Z,1.20
2018-10-07T03:36:52.675Z,0.77
2018-10-07T03:39:20.975Z,0.93
2018-10-07T03:41:49.277Z,0.77
2018-10-07T03:44:17.576Z,0.70
2018-10-07T03:46:45.863Z,1.00
2018-10-07T03:49:14.159Z,0.60
2018-10-07T03:51:42.441Z,0.50
2018-10-07T03:54:10.735Z,0.50
2018-10-07T03:56:39.023Z,0.80
2018-10-07T03:59:07.305Z,0.50
2018-10-07T04:01:35.615Z,0.80
2018-10-07T04:04:03.916Z,0.47
2018-10-07T04:06:32.207Z,0.80
2018-10-07T04:09:00.533Z,0.50
2018-10-07T04:11:28.849Z,0.70
2018-10-07T04:13:57.152Z,1.23
2018-10-07T04:16:25.461Z,0.87
2018-10-07T04:18:53.776Z,0.40
2018-10-07T04:21:22.048Z,0.50
2018-10-07T04:23:50.333Z,0.40
2018-10-07T04:26:18.624Z,0.50
2018-10-07T04:28:46.911Z,0.37
2018-10-07T04:31:15.192Z,0.80
2018-10-07T04:33:43.572Z,0.50
2018-10-07T04:36:11.872Z,0.83
2018-10-07T04:38:40.571Z,0.43
2018-10-07T04:41:08.862Z,0.40
2018-10-07T04:43:37.183Z,0.50
2018-10-07T04:46:05.784Z,0.57
2018-10-07T04:48:34.112Z,0.77
2018-10-07T04:51:02.419Z,0.57
2018-10-07T04:53:30.875Z,0.53
2018-10-07T04:55:59.160Z,0.83
2018-10-07T04:58:27.439Z,0.70
2018-10-07T05:00:55.731Z,0.97
2018-10-07T05:03:24.022Z,0.97
2018-10-07T05:05:52.323Z,0.83
2018-10-07T05:08:20.751Z,0.67
2018-10-07T05:10:57.631Z,0.50
2018-10-07T05:13:32.027Z,0.60
2018-10-07T05:16:02.266Z,1.37
2018-10-07T05:18:31.205Z,0.90
2018-10-07T05:20:59.526Z,1.00
2018-10-07T05:23:27.788Z,0.43
2018-10-07T05:25:56.072Z,0.63
2018-10-07T05:28:24.375Z,0.50
2018-10-07T05:30:52.646Z,0.67
2018-10-07T05:33:20.978Z,0.60
2018-10-07T05:35:49.203Z,0.80
2018-10-07T05:38:17.468Z,0.77
2018-10-07T05:40:45.755Z,0.80
2018-10-07T05:43:14.075Z,0.83
2018-10-07T05:45:42.355Z,0.73
2018-10-07T05:48:10.653Z,0.67
2018-10-07T05:50:38.932Z,0.60
2018-10-07T05:53:07.203Z,0.63
2018-10-07T05:55:35.523Z,0.80
2018-10-07T05:58:05.482Z,0.40
2018-10-07T06:00:35.024Z,0.80
2018-10-07T06:04:08.075Z,1.00
2018-10-07T06:06:36.516Z,0.77
2018-10-07T06:09:06.853Z,0.93
2018-10-07T06:11:35.139Z,0.70
2018-10-07T06:14:03.481Z,0.60
2018-10-07T06:16:31.785Z,0.50
2018-10-07T06:19:00.060Z,0.80
2018-10-07T06:21:28.365Z,0.67
2018-10-07T06:23:56.676Z,0.90
2018-10-07T06:26:24.957Z,1.00
2018-10-07T06:28:53.267Z,0.83
2018-10-07T06:31:21.553Z,0.70
2018-10-07T06:33:49.827Z,0.80
2018-10-07T06:36:18.146Z,0.50
2018-10-07T06:38:46.430Z,0.67
2018-10-07T06:41:14.718Z,0.90
2018-10-07T06:43:42.995Z,0.67
2018-10-07T06:46:11.305Z,0.47
2018-10-07T06:48:39.591Z,0.50
2018-10-07T06:51:07.867Z,0.50
2018-10-07T06:53:36.146Z,0.50
2018-10-07T06:56:04.419Z,0.70
2018-10-07T06:58:32.707Z,0.73
2018-10-07T07:01:01.077Z,0.70
2018-10-07T07:03:29.359Z,1.07
2018-10-07T07:05:57.608Z,0.60
2018-10-07T07:08:25.883Z,0.47
2018-10-07T07:10:54.156Z,0.97
2018-10-07T07:13:22.497Z,0.63
2018-10-07T07:15:50.732Z,0.60
2018-10-07T07:18:19.044Z,0.70
2018-10-07T07:20:47.319Z,0.80
2018-10-07T07:23:15.619Z,2.47
2018-10-07T07:25:43.908Z,2.27
2018-10-07T07:28:12.244Z,4.20
2018-10-07T07:30:40.504Z,1.70
2018-10-07T07:33:08.771Z,1.57
2018-10-07T07:35:37.047Z,1.07
2018-10-07T07:38:05.347Z,1.00
2018-10-07T07:40:33.633Z,0.80
2018-10-07T07:43:01.900Z,0.70
2018-10-07T07:45:30.228Z,0.27
2018-10-07T07:47:58.521Z,0.70
2018-10-07T07:50:26.796Z,0.63
2018-10-07T07:52:55.063Z,1.00
2018-10-07T07:55:23.352Z,0.93
2018-10-07T07:57:51.649Z,0.93
2018-10-07T08:00:19.915Z,1.30
2018-10-07T08:02:48.193Z,0.93
2018-10-07T08:05:16.508Z,0.83
2018-10-07T08:07:44.807Z,0.60
2018-10-07T08:10:13.090Z,1.67
2018-10-07T08:12:41.556Z,0.50
2018-10-07T08:15:09.852Z,0.93
2018-10-07T08:17:38.189Z,0.57
2018-10-07T08:20:06.472Z,0.60
2018-10-07T08:22:34.752Z,0.80
2018-10-07T08:25:03.088Z,0.40
2018-10-07T08:27:31.388Z,0.40
2018-10-07T08:29:59.731Z,0.27
2018-10-07T08:32:28.023Z,0.67
2018-10-07T08:34:56.292Z,0.60
2018-10-07T08:37:24.567Z,2.20
2018-10-07T08:39:52.959Z,0.67
2018-10-07T08:42:21.244Z,0.97
2018-10-07T08:44:49.534Z,0.57
2018-10-07T08:47:17.987Z,0.77
2018-10-07T08:49:46.314Z,0.90
2018-10-07T08:52:14.581Z,1.00
2018-10-07T08:54:42.843Z,0.80
2018-10-07T08:57:11.151Z,0.90
2018-10-07T08:59:39.438Z,0.50
2018-10-07T09:02:07.739Z,1.07
2018-10-07T09:04:36.060Z,0.82
2018-10-07T09:07:04.436Z,0.80
2018-10-07T09:09:32.758Z,0.98
2018-10-07T09:12:01.069Z,1.12
2018-10-07T09:14:29.467Z,1.30
2018-10-07T09:16:57.732Z,0.98
2018-10-07T09:19:26.011Z,0.98
2018-10-07T09:21:54.291Z,1.35
2018-10-07T09:24:22.608Z,1.37
2018-10-07T09:26:50.984Z,1.07
2018-10-07T09:29:19.196Z,0.88
2018-10-07T09:31:47.505Z,0.88
2018-10-07T09:34:15.772Z,1.02
2018-10-07T09:36:44.087Z,1.12
2018-10-07T09:39:13.036Z,0.78
2018-10-07T09:41:41.315Z,1.00
2018-10-07T09:44:09.893Z,1.55
2018-10-07T09:46:38.379Z,1.35
2018-10-07T09:49:13.320Z,0.90
2018-10-07T09:51:41.586Z,1.52
2018-10-07T09:54:09.894Z,7.37
2018-10-07T09:56:38.198Z,2.58
2018-10-07T09:59:06.661Z,2.75
2018-10-07T10:01:34.955Z,1.22
2018-10-07T10:04:03.460Z,1.77
2018-10-07T10:06:31.784Z,0.98
2018-10-07T10:09:00.061Z,0.85
2018-10-07T10:11:28.529Z,1.07
2018-10-07T10:13:56.825Z,1.07
2018-10-07T10:16:34.837Z,1.77
2018-10-07T10:19:04.451Z,1.30
2018-10-07T10:21:40.043Z,1.10
2018-10-07T10:25:19.568Z,1.10
2018-10-07T10:28:02.026Z,0.97
2018-10-07T10:31:05.596Z,1.03
2018-10-07T10:33:36.195Z,1.13
2018-10-07T10:36:39.551Z,1.07
2018-10-07T10:40:21.235Z,0.87
2018-10-07T10:42:54.751Z,1.13
2018-10-07T10:45:31.072Z,1.73
2018-10-07T10:48:03.100Z,1.77
2018-10-07T10:50:39.992Z,1.43
2018-10-07T10:53:17.869Z,0.90
2018-10-07T10:55:58.740Z,1.47
2018-10-07T10:58:44.911Z,1.37
2018-10-07T11:01:15.336Z,1.27
2018-10-07T11:03:51.288Z,1.30
2018-10-07T11:06:39.547Z,2.07
2018-10-07T11:09:48.060Z,1.63
2018-10-07T11:12:58.900Z,1.30
2018-10-07T11:15:31.457Z,0.90
2018-10-07T11:18:11.317Z,1.10
2018-10-07T11:20:46.791Z,1.13
2018-10-07T11:23:26.496Z,1.10
2018-10-07T11:26:02.453Z,0.73
2018-10-07T11:29:38.383Z,1.47
2018-10-07T11:32:14.616Z,1.10
2018-10-07T11:35:03.243Z,1.47
2018-10-07T11:38:15.365Z,0.93
2018-10-07T11:40:56.179Z,1.10
2018-10-07T11:43:33.488Z,1.33
2018-10-07T11:46:13.251Z,0.77
2018-10-07T11:49:13.475Z,0.87
2018-10-07T11:51:54.618Z,1.43
2018-10-07T11:54:53.724Z,1.70
2018-10-07T11:57:21.999Z,0.97
2018-10-07T11:59:50.266Z,1.93
2018-10-07T12:02:18.708Z,0.90
2018-10-07T12:04:46.911Z,0.83
2018-10-07T12:07:15.546Z,0.97
2018-10-07T12:09:43.901Z,0.87
2018-10-07T12:12:12.607Z,0.73
2018-10-07T12:14:40.901Z,1.03
2018-10-07T12:17:09.899Z,1.10
2018-10-07T12:19:38.476Z,1.10
2018-10-07T12:22:06.984Z,1.07
2018-10-07T12:24:35.431Z,1.23
2018-10-07T12:27:03.728Z,1.27
2018-10-07T12:29:32.027Z,1.10
2018-10-07T12:32:00.295Z,0.70
2018-10-07T12:34:28.656Z,1.20
2018-10-07T12:36:57.008Z,0.97
2018-10-07T12:39:25.391Z,0.63
2018-10-07T12:41:53.683Z,1.23
2018-10-07T12:44:21.983Z,0.57
2018-10-07T12:46:50.261Z,0.97
2018-10-07T12:49:18.563Z,1.50
2018-10-07T12:51:46.884Z,1.10
2018-10-07T12:54:15.229Z,0.90
2018-10-07T12:56:43.544Z,1.20
2018-10-07T12:59:11.840Z,0.80
2018-10-07T13:01:40.143Z,1.60
2018-10-07T13:04:08.459Z,0.93
2018-10-07T13:06:36.737Z,1.10
2018-10-07T13:09:07.976Z,1.37
2018-10-07T13:11:36.415Z,0.90
2018-10-07T13:14:04.731Z,1.70
2018-10-07T13:16:33.037Z,0.80
2018-10-07T13:19:01.344Z,1.10
2018-10-07T13:21:29.640Z,0.97
2018-10-07T13:23:57.923Z,0.50
2018-10-07T13:26:26.225Z,0.50
2018-10-07T13:28:54.510Z,0.63
2018-10-07T13:31:22.779Z,1.20
2018-10-07T13:33:51.043Z,1.00
2018-10-07T13:36:19.327Z,0.80
2018-10-07T13:38:47.581Z,1.00
2018-10-07T13:41:15.888Z,0.90
2018-10-07T13:43:44.168Z,0.87
2018-10-07T13:46:12.502Z,1.27
2018-10-07T13:48:40.795Z,1.13
2018-10-07T13:51:09.057Z,0.87
2018-10-07T13:53:37.374Z,1.20
2018-10-07T13:56:11.960Z,0.77
2018-10-07T13:58:40.251Z,0.83
2018-10-07T14:01:08.575Z,1.37
2018-10-07T14:03:37.111Z,1.13
2018-10-07T14:06:05.378Z,1.10
2018-10-07T14:08:33.709Z,0.80
2018-10-07T14:11:02.047Z,1.10
2018-10-07T14:13:30.363Z,0.83
2018-10-07T14:15:58.655Z,1.10
2018-10-07T14:18:26.947Z,1.03
2018-10-07T14:20:55.220Z,2.03
2018-10-07T14:23:23.509Z,1.27
2018-10-07T14:25:51.787Z,1.20
2018-10-07T14:28:20.072Z,1.10
2018-10-07T14:30:48.376Z,1.43
2018-10-07T14:33:16.684Z,1.23
2018-10-07T14:35:44.987Z,1.13
2018-10-07T14:38:13.302Z,0.80
2018-10-07T14:40:41.612Z,0.90
2018-10-07T14:43:09.876Z,1.03
2018-10-07T14:45:38.156Z,1.00
2018-10-07T14:48:06.518Z,1.13
2018-10-07T14:50:35.284Z,0.80
2018-10-07T14:53:03.579Z,0.87
2018-10-07T14:55:31.872Z,1.23
2018-10-07T14:58:00.295Z,1.30
2018-10-07T15:00:28.592Z,1.10
2018-10-07T15:02:56.887Z,1.37
2018-10-07T15:05:25.187Z,0.83
2018-10-07T15:07:53.467Z,0.97
2018-10-07T15:10:21.784Z,1.10
2018-10-07T15:12:50.071Z,1.17
2018-10-07T15:15:18.369Z,1.23
2018-10-07T15:17:46.685Z,0.80
2018-10-07T15:20:14.999Z,0.90
2018-10-07T15:22:43.291Z,0.47
2018-10-07T15:25:11.567Z,1.10
2018-10-07T15:27:39.830Z,0.87
2018-10-07T15:30:08.121Z,0.90
2018-10-07T15:32:36.460Z,0.50
2018-10-07T15:35:04.740Z,1.03
2018-10-07T15:37:33.008Z,0.80
2018-10-07T15:40:01.430Z,1.33
2018-10-07T15:42:29.736Z,0.63
2018-10-07T15:44:58.018Z,1.77
2018-10-07T15:47:26.368Z,1.03
2018-10-07T15:49:54.672Z,1.10
2018-10-07T15:52:23.039Z,0.60
2018-10-07T15:54:51.359Z,1.43
2018-10-07T15:57:19.677Z,0.83
2018-10-07T15:59:47.947Z,1.03
2018-10-07T16:02:16.222Z,0.90
2018-10-07T16:04:44.500Z,0.73
2018-10-07T16:07:12.772Z,1.00
2018-10-07T16:09:41.129Z,0.60
2018-10-07T16:12:09.389Z,0.53
2018-10-07T16:14:37.802Z,0.93
2018-10-07T16:17:06.225Z,1.00
2018-10-07T16:19:34.516Z,1.07
2018-10-07T16:22:02.799Z,0.90
2018-10-07T16:24:31.247Z,1.43
2018-10-07T16:26:59.476Z,0.80
2018-10-07T16:29:27.804Z,1.07
2018-10-07T16:31:56.096Z,0.90
2018-10-07T16:34:24.496Z,0.83
2018-10-07T16:36:52.813Z,5.60
2018-10-07T16:39:21.255Z,24.67
2018-10-07T16:41:49.460Z,8.53
2018-10-07T16:44:17.729Z,9.37
2018-10-07T16:46:46.032Z,7.57
2018-10-07T16:49:14.372Z,2.10
2018-10-07T16:51:42.700Z,1.73
2018-10-07T16:54:10.980Z,1.80
2018-10-07T16:56:39.266Z,1.10
2018-10-07T16:59:07.546Z,1.07
2018-10-07T17:01:35.896Z,0.87
2018-10-07T17:04:04.256Z,1.73
2018-10-07T17:06:32.568Z,1.10
2018-10-07T17:09:00.856Z,1.53
2018-10-07T17:11:29.134Z,1.73
2018-10-07T17:13:57.426Z,1.10
2018-10-07T17:16:25.688Z,1.40
2018-10-07T17:18:53.967Z,1.90
2018-10-07T17:21:22.245Z,1.40
2018-10-07T17:23:50.536Z,1.70
2018-10-07T17:26:18.825Z,1.73
2018-10-07T17:28:47.091Z,1.47
2018-10-07T17:31:15.403Z,1.30
2018-10-07T17:33:43.681Z,1.47
2018-10-07T17:36:11.975Z,1.10
2018-10-07T17:38:40.262Z,1.90
2018-10-07T17:41:08.571Z,1.80
2018-10-07T17:43:36.877Z,1.70
2018-10-07T17:46:05.164Z,1.43
2018-10-07T17:48:33.446Z,1.40
2018-10-07T17:51:01.772Z,1.83
2018-10-07T17:53:30.466Z,1.60
2018-10-07T17:55:58.747Z,1.17
2018-10-07T17:58:27.098Z,1.50
2018-10-07T18:00:55.402Z,1.30
2018-10-07T18:03:23.773Z,8.77
2018-10-07T18:05:51.972Z,6.80
2018-10-07T18:08:20.300Z,4.13
2018-10-07T18:10:48.610Z,3.00
2018-10-07T18:13:16.901Z,2.37
2018-10-07T18:15:45.199Z,1.57
2018-10-07T18:18:13.480Z,1.77
2018-10-07T18:20:42.377Z,2.27
2018-10-07T18:23:10.664Z,2.23
2018-10-07T18:25:38.939Z,3.07
2018-10-07T18:28:07.214Z,2.17
2018-10-07T18:30:35.544Z,1.70
2018-10-07T18:33:04.224Z,2.10
2018-10-07T18:35:32.532Z,2.13
2018-10-07T18:38:00.845Z,2.10
2018-10-07T18:40:29.165Z,1.50
2018-10-07T18:42:57.479Z,2.00
2018-10-07T18:45:28.632Z,1.93
2018-10-07T18:47:56.951Z,2.00
2018-10-07T18:50:25.248Z,2.00
2018-10-07T18:52:53.659Z,2.10
2018-10-07T18:55:21.967Z,2.20
2018-10-07T18:57:50.274Z,2.30
2018-10-07T19:00:18.593Z,2.10
2018-10-07T19:02:46.962Z,2.10
2018-10-07T19:05:15.216Z,1.80
2018-10-07T19:07:43.493Z,1.77
2018-10-07T19:10:11.768Z,6.50
2018-10-07T19:12:40.053Z,12.57
2018-10-07T19:15:08.339Z,5.10
2018-10-07T19:17:36.631Z,3.47
2018-10-07T19:20:04.943Z,2.70
2018-10-07T19:22:33.223Z,13.37
2018-10-07T19:25:01.524Z,6.17
2018-10-07T19:27:29.891Z,4.47
2018-10-07T19:29:58.193Z,2.30
2018-10-07T19:32:26.456Z,1.90
2018-10-07T19:34:54.780Z,1.90
2018-10-07T19:37:23.202Z,2.23
2018-10-07T19:39:51.360Z,2.43
2018-10-07T19:42:19.639Z,3.30
2018-10-07T19:44:47.960Z,39.30
2018-10-07T19:47:16.211Z,27.13
2018-10-07T19:49:44.484Z,9.63
2018-10-07T19:52:12.802Z,10.70
2018-10-07T19:54:41.083Z,4.13
2018-10-07T19:57:09.361Z,1.57
2018-10-07T19:59:37.682Z,2.70
2018-10-07T20:02:12.592Z,1.80
2018-10-07T20:04:40.847Z,2.33
2018-10-07T20:07:09.115Z,2.60
2018-10-07T20:09:37.387Z,2.57
2018-10-07T20:12:05.666Z,2.00
2018-10-07T20:14:33.952Z,2.30
2018-10-07T20:17:02.211Z,2.10
2018-10-07T20:19:30.607Z,2.00
2018-10-07T20:21:58.843Z,2.50
2018-10-07T20:24:27.105Z,2.37
2018-10-07T20:26:55.384Z,1.87
2018-10-07T20:29:23.679Z,2.87
2018-10-07T20:31:51.972Z,2.13
2018-10-07T20:34:20.243Z,2.30
2018-10-07T20:36:48.512Z,2.53
2018-10-07T20:39:16.777Z,1.97
2018-10-07T20:41:45.032Z,2.67
2018-10-07T20:44:13.292Z,2.13
2018-10-07T20:46:41.597Z,2.10
2018-10-07T20:49:09.872Z,2.57
2018-10-07T20:51:38.148Z,2.90
2018-10-07T20:54:06.424Z,2.83
2018-10-07T20:56:34.704Z,2.10
2018-10-07T20:59:02.989Z,2.67
2018-10-07T21:01:31.251Z,2.77
2018-10-07T21:03:59.553Z,2.97
2018-10-07T21:06:27.832Z,3.03
2018-10-07T21:08:56.216Z,3.33
2018-10-07T21:11:24.492Z,3.87
2018-10-07T21:13:52.811Z,3.47
2018-10-07T21:16:21.207Z,3.00
2018-10-07T21:18:49.496Z,2.33
2018-10-07T21:21:17.808Z,3.20
2018-10-07T21:23:46.071Z,2.20
2018-10-07T21:26:14.383Z,2.37
2018-10-07T21:28:42.656Z,2.30
2018-10-07T21:31:11.100Z,1.87
2018-10-07T21:33:39.408Z,2.80
2018-10-07T21:36:07.673Z,2.27
2018-10-07T21:38:36.083Z,2.23
2018-10-07T21:41:04.392Z,2.30
2018-10-07T21:43:32.658Z,2.97
2018-10-07T21:46:00.941Z,2.17
2018-10-07T21:48:29.244Z,2.60
2018-10-07T21:50:57.515Z,2.17
2018-10-07T21:53:25.902Z,2.30
2018-10-07T21:55:54.196Z,3.13
2018-10-07T21:58:22.560Z,4.63
2018-10-07T22:00:50.872Z,3.23
2018-10-07T22:03:19.156Z,4.03
2018-10-07T22:05:47.466Z,4.13
2018-10-07T22:08:15.798Z,5.30
2018-10-07T22:10:44.083Z,5.63
2018-10-07T22:13:12.360Z,5.70
2018-10-07T22:15:40.631Z,4.50
2018-10-07T22:18:08.940Z,5.03
2018-10-07T22:20:37.222Z,4.60
2018-10-07T22:23:05.558Z,4.77
2018-10-07T22:25:33.842Z,4.87
2018-10-07T22:28:02.125Z,4.60
2018-10-07T22:30:30.495Z,4.13
2018-10-07T22:32:58.772Z,3.67
2018-10-07T22:35:27.052Z,4.50
2018-10-07T22:37:55.322Z,4.00
2018-10-07T22:40:23.596Z,3.83
2018-10-07T22:42:51.872Z,3.90
2018-10-07T22:45:20.235Z,4.30
2018-10-07T22:47:48.519Z,3.77
2018-10-07T22:50:16.763Z,3.80
2018-10-07T22:52:45.033Z,3.13
2018-10-07T22:55:13.314Z,4.47
2018-10-07T22:57:41.569Z,3.60
2018-10-07T23:00:09.868Z,3.87
2018-10-07T23:02:38.120Z,3.23
2018-10-07T23:05:06.399Z,3.60
2018-10-07T23:07:34.710Z,3.33
2018-10-07T23:10:02.969Z,3.13
2018-10-07T23:12:31.244Z,3.80
2018-10-07T23:14:59.495Z,4.23
2018-10-07T23:17:27.739Z,2.87
2018-10-07T23:19:55.987Z,3.00
2018-10-07T23:22:24.253Z,3.83
2018-10-07T23:24:52.532Z,3.47
2018-10-07T23:27:20.782Z,3.50
2018-10-07T23:29:49.051Z,2.77
2018-10-07T23:32:17.386Z,3.47
2018-10-07T23:34:45.642Z,2.90
2018-10-07T23:37:13.924Z,3.07
2018-10-07T23:39:42.183Z,3.27
2018-10-07T23:42:10.450Z,3.10
2018-10-07T23:44:38.780Z,3.33
2018-10-07T23:47:07.042Z,3.53
2018-10-07T23:49:35.304Z,3.73
2018-10-07T23:52:03.618Z,3.33
2018-10-07T23:54:31.888Z,3.07
2018-10-07T23:57:00.187Z,3.07
2018-10-07T23:59:28.484Z,3.17
